createdAt,value
2023-03-03T00:02:07.827Z,67.40
2023-03-03T00:04:38.583Z,67.80
2023-03-03T00:07:08.843Z,67.70
2023-03-03T00:09:39.324Z,66.50
2023-03-03T00:12:28.822Z,64.90
2023-03-03T00:15:00.091Z,64.60
2023-03-03T00:17:34.332Z,63.40
2023-03-03T00:20:29.746Z,63.20
2023-03-03T00:23:24.147Z,63.20
2023-03-03T00:25:56.698Z,63.30
2023-03-03T00:28:50.174Z,63.50
2023-03-03T00:31:29.233Z,63.70
2023-03-03T00:34:22.219Z,62.70
2023-03-03T00:36:58.988Z,62.20
2023-03-03T00:39:41.052Z,61.20
2023-03-03T00:42:21.478Z,61.00
2023-03-03T00:45:01.088Z,61.30
2023-03-03T00:47:41.455Z,61.90
2023-03-03T00:50:15.111Z,62.60
2023-03-03T00:53:07.990Z,63.00
2023-03-03T00:55:38.553Z,63.30
2023-03-03T00:58:09.010Z,63.20
2023-03-03T01:00:40.989Z,63.50
2023-03-03T01:03:16.328Z,63.10
2023-03-03T01:05:46.889Z,63.40
2023-03-03T01:08:17.881Z,64.00
2023-03-03T01:10:57.495Z,64.10
2023-03-03T01:13:32.436Z,63.80
2023-03-03T01:16:03.648Z,64.00
2023-03-03T01:18:34.537Z,64.00
2023-03-03T01:21:04.951Z,63.40
2023-03-03T01:23:35.395Z,62.30
2023-03-03T01:26:06.247Z,62.50
2023-03-03T01:28:37.048Z,61.70
2023-03-03T01:31:08.668Z,60.30
2023-03-03T01:33:39.513Z,61.40
2023-03-03T01:36:11.023Z,61.60
2023-03-03T01:38:42.026Z,60.00
2023-03-03T01:41:12.390Z,59.80
2023-03-03T01:43:48.404Z,58.70
2023-03-03T01:46:36.563Z,57.50
2023-03-03T01:49:15.065Z,57.40
2023-03-03T01:51:51.113Z,57.30
2023-03-03T01:54:44.259Z,58.00
2023-03-03T01:57:21.062Z,56.20
2023-03-03T01:59:53.297Z,56.30
2023-03-03T02:02:24.450Z,56.10
2023-03-03T02:04:56.355Z,54.50
2023-03-03T02:07:30.447Z,53.80
2023-03-03T02:10:13.900Z,54.90
2023-03-03T02:12:54.064Z,55.00
2023-03-03T02:15:29.426Z,54.90
2023-03-03T02:18:02.989Z,54.70
2023-03-03T02:21:03.828Z,54.80
2023-03-03T02:23:55.348Z,53.70
2023-03-03T02:26:28.616Z,54.90
2023-03-03T02:28:59.473Z,54.10
2023-03-03T02:31:32.597Z,54.60
2023-03-03T02:34:03.591Z,54.20
2023-03-03T02:36:40.014Z,53.60
2023-03-03T02:39:31.779Z,52.20
2023-03-03T02:42:21.339Z,53.10
2023-03-03T02:44:52.491Z,53.20
2023-03-03T02:47:22.844Z,53.90
2023-03-03T02:49:53.180Z,55.00
2023-03-03T02:52:23.447Z,54.60
2023-03-03T02:54:53.772Z,53.20
2023-03-03T02:57:24.105Z,53.90
2023-03-03T02:59:54.449Z,53.10
2023-03-03T03:02:24.887Z,53.90
2023-03-03T03:04:55.132Z,55.60
2023-03-03T03:07:25.803Z,56.60
2023-03-03T03:09:57.631Z,55.80
2023-03-03T03:12:28.639Z,54.40
2023-03-03T03:14:58.973Z,54.70
2023-03-03T03:17:29.418Z,54.40
2023-03-03T03:19:59.763Z,53.00
2023-03-03T03:22:30.157Z,52.30
2023-03-03T03:25:00.542Z,53.30
2023-03-03T03:27:30.867Z,54.10
2023-03-03T03:30:01.231Z,54.60
2023-03-03T03:32:32.390Z,53.50
2023-03-03T03:35:06.038Z,54.10
2023-03-03T03:37:36.789Z,54.60
2023-03-03T03:40:08.155Z,53.80
2023-03-03T03:42:39.296Z,54.00
2023-03-03T03:45:10.269Z,54.90
2023-03-03T03:47:40.818Z,54.50
2023-03-03T03:50:12.488Z,53.10
2023-03-03T03:52:42.898Z,54.20
2023-03-03T03:55:13.576Z,54.30
2023-03-03T03:57:44.931Z,54.50
2023-03-03T04:00:15.673Z,53.50
2023-03-03T04:02:47.794Z,53.80
2023-03-03T04:05:18.222Z,54.70
2023-03-03T04:07:48.918Z,53.60
2023-03-03T04:10:19.968Z,53.20
2023-03-03T04:12:50.300Z,52.70
2023-03-03T04:15:20.678Z,52.60
2023-03-03T04:17:51.101Z,53.30
2023-03-03T04:20:21.483Z,53.20
2023-03-03T04:22:52.342Z,53.50
2023-03-03T04:25:22.707Z,52.70
2023-03-03T04:27:54.600Z,52.40
2023-03-03T04:30:25.273Z,52.80
2023-03-03T04:32:55.890Z,53.40
2023-03-03T04:35:26.249Z,53.10
2023-03-03T04:37:56.711Z,53.40
2023-03-03T04:40:27.108Z,54.00
2023-03-03T04:42:57.456Z,52.90
2023-03-03T04:45:27.851Z,53.00
2023-03-03T04:47:58.210Z,52.90
2023-03-03T04:50:28.597Z,53.90
2023-03-03T04:52:59.016Z,53.80
2023-03-03T04:55:29.295Z,54.20
2023-03-03T04:57:59.739Z,54.80
2023-03-03T05:00:30.387Z,54.60
2023-03-03T05:03:01.694Z,54.90
2023-03-03T05:05:32.210Z,54.50
2023-03-03T05:08:02.507Z,53.70
2023-03-03T05:10:34.827Z,54.20
2023-03-03T05:13:05.838Z,54.70
2023-03-03T05:15:36.111Z,54.40
2023-03-03T05:18:06.911Z,53.70
2023-03-03T05:20:40.190Z,55.80
2023-03-03T05:23:11.618Z,54.90
2023-03-03T05:25:44.049Z,55.30
2023-03-03T05:28:15.757Z,55.40
2023-03-03T05:30:46.602Z,55.10
2023-03-03T05:33:19.118Z,54.70
2023-03-03T05:35:49.642Z,55.20
2023-03-03T05:38:22.625Z,55.40
2023-03-03T05:40:53.267Z,55.60
2023-03-03T05:43:23.869Z,56.10
2023-03-03T05:46:02.952Z,55.70
2023-03-03T05:48:41.198Z,56.50
2023-03-03T05:51:12.167Z,58.00
2023-03-03T05:53:43.508Z,58.20
2023-03-03T05:56:13.819Z,58.00
2023-03-03T05:58:45.796Z,58.60
2023-03-03T06:01:16.743Z,58.20
2023-03-03T06:03:47.681Z,57.60
2023-03-03T06:06:19.303Z,57.10
2023-03-03T06:08:51.161Z,57.20
2023-03-03T06:11:22.074Z,57.70
2023-03-03T06:13:52.563Z,58.80
2023-03-03T06:16:23.039Z,60.10
2023-03-03T06:18:53.408Z,60.30
2023-03-03T06:21:24.162Z,60.40
2023-03-03T06:23:54.522Z,60.50
2023-03-03T06:26:26.953Z,61.20
2023-03-03T06:28:58.050Z,61.80
2023-03-03T06:31:29.543Z,62.20
2023-03-03T06:33:59.927Z,62.10
2023-03-03T06:36:31.366Z,62.40
2023-03-03T06:39:02.714Z,62.90
2023-03-03T06:41:34.599Z,63.10
2023-03-03T06:44:05.049Z,63.70
2023-03-03T06:55:30.903Z,65.20
2023-03-03T06:58:02.776Z,65.60
2023-03-03T07:00:33.649Z,66.10
2023-03-03T07:03:16.665Z,65.70
2023-03-03T07:05:48.211Z,66.00
2023-03-03T07:08:26.827Z,66.20
2023-03-03T07:10:58.122Z,67.00
2023-03-03T07:13:30.991Z,67.50
2023-03-03T07:16:07.923Z,67.80
2023-03-03T07:18:46.550Z,67.30
2023-03-03T07:21:24.793Z,67.50
2023-03-03T07:23:58.731Z,68.00
2023-03-03T07:26:33.296Z,68.10
2023-03-03T07:29:17.970Z,68.30
2023-03-03T07:31:54.269Z,68.60
2023-03-03T07:34:33.066Z,68.60
2023-03-03T07:37:08.413Z,68.40
2023-03-03T07:39:41.563Z,68.60
2023-03-03T07:42:26.442Z,68.80
2023-03-03T07:45:22.959Z,69.10
2023-03-03T07:47:55.959Z,69.80
2023-03-03T07:50:26.803Z,70.40
2023-03-03T07:53:03.922Z,70.50
2023-03-03T07:55:39.709Z,70.60
2023-03-03T07:58:19.319Z,70.80
2023-03-03T08:01:27.675Z,71.70
2023-03-03T08:04:00.014Z,71.70
2023-03-03T08:06:41.675Z,72.10
2023-03-03T08:09:16.330Z,72.10
2023-03-03T08:12:02.289Z,72.60
2023-03-03T08:14:42.241Z,73.20
2023-03-03T08:17:27.994Z,73.90
2023-03-03T08:19:59.023Z,73.90
2023-03-03T08:22:38.102Z,73.90
2023-03-03T08:25:08.900Z,73.90
2023-03-03T08:27:39.263Z,74.20
2023-03-03T08:30:10.299Z,74.40
2023-03-03T08:32:40.715Z,75.10
2023-03-03T08:35:14.415Z,75.90
2023-03-03T08:37:44.710Z,75.10
2023-03-03T08:40:15.783Z,74.90
2023-03-03T08:42:46.643Z,74.80
2023-03-03T08:45:17.661Z,75.10
2023-03-03T08:47:49.581Z,74.90
2023-03-03T08:50:22.939Z,75.40
2023-03-03T08:52:55.194Z,75.40
2023-03-03T08:55:29.556Z,75.20
2023-03-03T08:58:00.459Z,75.20
2023-03-03T09:00:33.116Z,75.30
2023-03-03T09:03:03.940Z,75.40
2023-03-03T09:05:34.970Z,75.50
2023-03-03T09:08:06.697Z,75.50
2023-03-03T09:10:38.258Z,75.60
2023-03-03T09:13:18.814Z,75.70
2023-03-03T09:15:51.320Z,75.90
2023-03-03T09:18:39.453Z,76.30
2023-03-03T09:21:28.605Z,75.90
2023-03-03T09:24:01.899Z,76.40
2023-03-03T09:26:42.178Z,76.40
2023-03-03T09:29:19.052Z,76.90
2023-03-03T09:31:55.586Z,76.70
2023-03-03T09:34:27.185Z,76.70
2023-03-03T09:37:02.579Z,77.20
2023-03-03T09:39:33.999Z,77.50
2023-03-03T09:42:22.784Z,77.50
2023-03-03T09:45:20.507Z,77.50
2023-03-03T09:48:03.970Z,77.20
2023-03-03T09:51:15.309Z,77.50
2023-03-03T09:54:22.705Z,77.50
2023-03-03T09:57:12.267Z,77.60
2023-03-03T10:00:07.913Z,78.20
2023-03-03T10:02:39.273Z,78.90
2023-03-03T10:05:16.722Z,78.00
2023-03-03T10:08:14.852Z,78.10
2023-03-03T10:11:04.062Z,78.00
2023-03-03T10:14:03.696Z,77.50
2023-03-03T10:16:59.273Z,78.00
2023-03-03T10:19:36.747Z,78.00
2023-03-03T10:22:20.437Z,78.50
2023-03-03T10:25:20.507Z,78.10
2023-03-03T10:28:06.107Z,78.20
2023-03-03T10:31:02.567Z,77.70
2023-03-03T10:33:55.372Z,77.90
2023-03-03T10:36:32.451Z,77.60
2023-03-03T10:39:08.759Z,78.00
2023-03-03T10:41:41.774Z,77.60
2023-03-03T10:44:30.656Z,78.00
2023-03-03T10:47:01.446Z,78.00
2023-03-03T10:49:56.402Z,77.50
2023-03-03T10:52:36.350Z,77.50
2023-03-03T10:55:19.471Z,77.80
2023-03-03T10:57:57.000Z,78.30
2023-03-03T11:00:48.069Z,78.30
2023-03-03T11:03:24.126Z,78.20
2023-03-03T11:06:01.088Z,77.90
2023-03-03T11:08:49.956Z,77.90
2023-03-03T11:11:39.024Z,77.90
2023-03-03T11:14:09.675Z,78.00
2023-03-03T11:17:13.344Z,77.90
2023-03-03T11:19:54.752Z,77.90
2023-03-03T11:22:26.561Z,78.10
2023-03-03T11:25:24.418Z,78.30
2023-03-03T11:28:24.701Z,77.90
2023-03-03T11:31:31.722Z,77.80
2023-03-03T11:34:17.675Z,77.70
2023-03-03T11:37:06.406Z,78.00
2023-03-03T11:39:37.432Z,78.20
2023-03-03T11:42:26.090Z,78.30
2023-03-03T11:45:05.472Z,78.00
2023-03-03T11:47:48.170Z,78.00
2023-03-03T11:50:40.952Z,78.20
2023-03-03T11:53:48.398Z,78.50
2023-03-03T11:56:32.819Z,78.40
2023-03-03T11:59:11.966Z,78.20
2023-03-03T12:02:07.572Z,78.70
2023-03-03T12:05:01.398Z,78.30
2023-03-03T12:07:48.129Z,78.80
2023-03-03T12:10:24.826Z,78.20
2023-03-03T12:13:05.382Z,78.50
2023-03-03T12:15:42.068Z,78.30
2023-03-03T12:18:25.248Z,78.70
2023-03-03T12:21:19.345Z,78.40
2023-03-03T12:24:04.897Z,78.30
2023-03-03T12:27:02.244Z,78.00
2023-03-03T12:30:03.336Z,77.90
2023-03-03T12:33:02.603Z,78.00
2023-03-03T12:35:50.614Z,78.10
2023-03-03T12:38:31.855Z,77.50
2023-03-03T12:41:23.491Z,78.00
2023-03-03T12:44:15.198Z,77.70
2023-03-03T12:47:24.160Z,77.60
2023-03-03T12:50:17.916Z,77.70
2023-03-03T12:53:09.895Z,77.90
2023-03-03T12:55:57.409Z,78.20
2023-03-03T12:58:46.934Z,77.90
2023-03-03T13:01:19.932Z,77.70
2023-03-03T13:04:19.579Z,78.00
2023-03-03T13:07:13.645Z,78.30
2023-03-03T13:10:29.540Z,78.30
2023-03-03T13:13:18.749Z,78.00
2023-03-03T13:16:10.050Z,78.00
2023-03-03T13:18:59.612Z,78.00
2023-03-03T13:21:54.824Z,77.60
2023-03-03T13:24:35.991Z,77.80
2023-03-03T13:27:17.335Z,78.00
2023-03-03T13:30:05.191Z,77.20
2023-03-03T13:32:43.016Z,77.00
2023-03-03T13:35:35.306Z,77.20
2023-03-03T13:38:08.236Z,77.20
2023-03-03T13:40:52.865Z,76.90
2023-03-03T13:43:54.084Z,76.80
2023-03-03T13:46:52.144Z,76.50
2023-03-03T13:49:31.363Z,76.40
2023-03-03T13:52:08.329Z,76.60
2023-03-03T13:54:45.374Z,76.30
2023-03-03T13:57:38.806Z,76.40
2023-03-03T14:00:33.076Z,76.00
2023-03-03T14:03:21.202Z,76.00
2023-03-03T14:05:53.643Z,75.60
2023-03-03T14:08:30.557Z,75.60
2023-03-03T14:11:13.027Z,75.60
2023-03-03T14:14:01.650Z,75.30
2023-03-03T14:17:01.509Z,74.70
2023-03-03T14:19:40.094Z,74.80
2023-03-03T14:22:47.976Z,74.30
2023-03-03T14:25:19.293Z,74.80
2023-03-03T14:27:56.211Z,75.10
2023-03-03T14:30:37.460Z,74.20
2023-03-03T14:33:16.147Z,74.40
2023-03-03T14:35:54.940Z,74.00
2023-03-03T14:38:36.430Z,74.60
2023-03-03T14:41:19.849Z,73.70
2023-03-03T14:44:30.271Z,74.20
2023-03-03T14:47:27.254Z,74.50
2023-03-03T14:50:05.066Z,74.40
2023-03-03T14:52:37.998Z,74.50
2023-03-03T14:55:34.396Z,75.10
2023-03-03T14:58:07.260Z,74.80
2023-03-03T15:00:38.658Z,73.90
2023-03-03T15:03:30.734Z,75.20
2023-03-03T15:06:02.797Z,75.00
2023-03-03T15:08:40.237Z,75.10
2023-03-03T15:11:30.347Z,74.70
2023-03-03T15:14:22.139Z,74.30
2023-03-03T15:16:52.959Z,74.40
2023-03-03T15:20:08.933Z,75.00
2023-03-03T15:23:08.175Z,74.80
2023-03-03T15:25:45.185Z,74.50
2023-03-03T15:28:38.225Z,74.60
2023-03-03T15:31:38.333Z,73.60
2023-03-03T15:34:45.494Z,73.00
2023-03-03T15:37:30.854Z,73.40
2023-03-03T15:40:27.906Z,73.70
2023-03-03T15:43:30.490Z,73.50
2023-03-03T15:46:17.126Z,73.90
2023-03-03T15:49:13.859Z,73.80
2023-03-03T15:52:25.090Z,73.80
2023-03-03T15:55:22.489Z,74.00
2023-03-03T15:58:26.307Z,74.10
2023-03-03T16:01:36.025Z,74.10
2023-03-03T16:04:19.104Z,74.40
2023-03-03T16:06:50.075Z,73.90
2023-03-03T16:09:55.994Z,73.20
2023-03-03T16:12:44.185Z,74.20
2023-03-03T16:15:53.395Z,74.40
2023-03-03T16:19:06.247Z,74.10
2023-03-03T16:21:54.562Z,74.60
2023-03-03T16:24:44.775Z,74.10
2023-03-03T16:27:27.426Z,74.50
2023-03-03T16:30:20.637Z,74.50
2023-03-03T16:33:24.937Z,74.10
2023-03-03T16:36:14.905Z,74.80
2023-03-03T16:39:02.524Z,74.80
2023-03-03T16:42:05.149Z,74.80
2023-03-03T16:45:19.424Z,74.80
2023-03-03T16:48:01.626Z,74.60
2023-03-03T16:50:53.484Z,74.80
2023-03-03T16:53:44.269Z,75.00
2023-03-03T16:56:25.514Z,75.00
2023-03-03T16:59:09.807Z,75.70
2023-03-03T17:01:55.104Z,75.70
2023-03-03T17:05:01.070Z,76.40
2023-03-03T17:08:06.171Z,76.60
2023-03-03T17:11:05.910Z,76.60
2023-03-03T17:13:39.712Z,76.90
2023-03-03T17:16:51.149Z,77.30
2023-03-03T17:19:41.997Z,76.90
2023-03-03T17:22:38.600Z,77.40
2023-03-03T17:25:16.232Z,77.10
2023-03-03T17:28:29.430Z,77.40
2023-03-03T17:31:36.372Z,77.50
2023-03-03T17:34:40.738Z,77.60
2023-03-03T17:37:48.957Z,77.30
2023-03-03T17:40:50.819Z,76.90
2023-03-03T17:43:42.214Z,77.20
2023-03-03T17:46:45.745Z,77.10
2023-03-03T17:49:37.734Z,77.30
2023-03-03T17:52:38.386Z,77.20
2023-03-03T17:55:15.074Z,77.20
2023-03-03T17:58:05.689Z,76.90
2023-03-03T18:01:01.209Z,77.90
2023-03-03T18:04:07.951Z,78.50
2023-03-03T18:07:14.728Z,78.30
2023-03-03T18:10:03.243Z,78.60
2023-03-03T18:12:53.540Z,79.10
2023-03-03T18:15:39.940Z,79.60
2023-03-03T18:18:24.272Z,79.10
2023-03-03T18:21:14.308Z,79.20
2023-03-03T18:23:48.718Z,79.50
2023-03-03T18:26:46.573Z,79.70
2023-03-03T18:29:22.876Z,80.10
2023-03-03T18:31:57.476Z,80.20
2023-03-03T18:34:42.822Z,80.00
2023-03-03T18:37:31.606Z,79.80
2023-03-03T18:40:25.002Z,79.90
2023-03-03T18:42:56.224Z,80.20
2023-03-03T18:45:28.872Z,80.10
2023-03-03T18:48:16.606Z,79.70
2023-03-03T18:50:52.304Z,80.20
2023-03-03T18:53:32.129Z,79.90
2023-03-03T18:56:04.822Z,79.50
2023-03-03T18:58:39.673Z,79.60
2023-03-03T19:01:28.034Z,79.40
2023-03-03T19:04:06.591Z,79.20
2023-03-03T19:06:40.339Z,79.70
2023-03-03T19:09:20.204Z,79.20
2023-03-03T19:11:59.532Z,79.50
2023-03-03T19:14:31.298Z,80.40
2023-03-03T19:17:23.013Z,79.60
2023-03-03T19:20:11.828Z,79.00
2023-03-03T19:23:09.471Z,79.60
2023-03-03T19:25:43.931Z,79.60
2023-03-03T19:28:39.239Z,79.90
2023-03-03T19:31:37.879Z,80.00
2023-03-03T19:34:16.592Z,80.80
2023-03-03T19:37:11.237Z,79.80
2023-03-03T19:40:16.515Z,79.90
2023-03-03T19:43:05.711Z,79.80
2023-03-03T19:45:54.910Z,79.80
2023-03-03T19:48:50.220Z,80.00
2023-03-03T19:51:36.729Z,79.90
2023-03-03T19:54:45.834Z,79.70
2023-03-03T19:57:38.992Z,79.40
2023-03-03T20:00:27.698Z,79.70
2023-03-03T20:03:29.794Z,80.10
2023-03-03T20:06:17.284Z,80.10
2023-03-03T20:08:54.969Z,80.30
2023-03-03T20:12:00.978Z,81.20
2023-03-03T20:14:50.828Z,81.00
2023-03-03T20:17:33.995Z,81.40
2023-03-03T20:20:06.938Z,81.00
2023-03-03T20:22:48.588Z,81.30
2023-03-03T20:25:39.171Z,81.20
2023-03-03T20:28:12.418Z,81.20
2023-03-03T20:30:53.895Z,81.20
2023-03-03T20:33:35.284Z,81.10
2023-03-03T20:36:45.329Z,80.90
2023-03-03T20:39:48.201Z,81.00
2023-03-03T20:42:44.144Z,80.90
2023-03-03T20:45:23.650Z,80.60
2023-03-03T20:48:12.297Z,81.60
2023-03-03T20:50:54.558Z,81.10
2023-03-03T20:53:37.111Z,81.00
2023-03-03T20:56:31.327Z,81.00
2023-03-03T20:59:30.483Z,81.20
2023-03-03T21:02:07.135Z,80.70
2023-03-03T21:04:38.010Z,81.00
2023-03-03T21:07:08.715Z,81.10
2023-03-03T21:09:41.552Z,80.90
2023-03-03T21:12:33.165Z,80.70
2023-03-03T21:15:28.406Z,81.00
2023-03-03T21:18:01.155Z,80.20
2023-03-03T21:20:38.483Z,79.00
2023-03-03T21:23:13.446Z,78.70
2023-03-03T21:25:43.646Z,78.90
2023-03-03T21:28:35.880Z,78.30
2023-03-03T21:31:15.483Z,78.10
2023-03-03T21:33:51.536Z,77.50
2023-03-03T21:36:38.988Z,77.10
2023-03-03T21:39:35.354Z,77.20
2023-03-03T21:42:18.210Z,77.20
2023-03-03T21:44:52.949Z,76.90
2023-03-03T21:47:25.730Z,76.40
2023-03-03T21:49:56.782Z,76.60
2023-03-03T21:52:27.558Z,76.40
2023-03-03T21:54:58.298Z,75.90
2023-03-03T21:57:29.884Z,76.00
2023-03-03T22:00:01.830Z,76.00
2023-03-03T22:02:32.119Z,75.70
2023-03-03T22:05:05.511Z,77.00
2023-03-03T22:07:36.669Z,77.10
2023-03-03T22:10:10.392Z,76.20
2023-03-03T22:12:41.532Z,76.30
2023-03-03T22:15:12.718Z,75.80
2023-03-03T22:17:45.228Z,76.00
2023-03-03T22:20:20.357Z,75.80
2023-03-03T22:22:53.026Z,75.50
2023-03-03T22:25:23.442Z,75.90
2023-03-03T22:27:54.072Z,75.20
2023-03-03T22:30:24.856Z,75.40
2023-03-03T22:32:56.386Z,75.60
2023-03-03T22:35:27.988Z,74.70
2023-03-03T22:37:58.330Z,74.30
2023-03-03T22:40:29.494Z,73.80
2023-03-03T22:42:59.853Z,74.20
2023-03-03T22:45:30.735Z,74.00
2023-03-03T22:48:03.406Z,74.00
2023-03-03T22:50:35.304Z,74.30
2023-03-03T22:53:05.967Z,74.40
2023-03-03T22:55:38.706Z,73.90
2023-03-03T22:58:09.947Z,74.20
2023-03-03T23:00:42.698Z,74.90
2023-03-03T23:03:16.953Z,74.10
2023-03-03T23:05:48.512Z,73.60
2023-03-03T23:08:29.700Z,74.10
2023-03-03T23:11:00.280Z,73.10
2023-03-03T23:13:32.201Z,73.60
2023-03-03T23:16:04.880Z,73.20
2023-03-03T23:18:35.720Z,72.70
2023-03-03T23:21:06.274Z,73.50
2023-03-03T23:23:36.930Z,72.60
2023-03-03T23:26:07.441Z,72.30
2023-03-03T23:28:37.711Z,72.50
2023-03-03T23:31:09.612Z,71.40
2023-03-03T23:33:39.979Z,71.40
2023-03-03T23:36:11.134Z,72.00
2023-03-03T23:38:43.163Z,71.90
2023-03-03T23:41:14.730Z,71.50
2023-03-03T23:43:47.097Z,72.10
2023-03-03T23:46:18.123Z,71.10
2023-03-03T23:48:48.938Z,71.00
2023-03-03T23:51:19.197Z,70.60
2023-03-03T23:53:49.874Z,70.30
2023-03-03T23:56:20.641Z,69.90
2023-03-03T23:58:50.956Z,70.00
